Mont Saint Michel — FNMT — position and weather

sailwx.info

Track history (hours):
 
Tides and Currents Weather Stations Pressure Air Temp Water Temp Dewpoint Dewpoint Depression Visibility Wind Speed Wind Dir Waves Ship Positions

Mont Saint Michel

Last reported at 2016-Jul-28 09:33 UTC. Time now 2016-Jul-28 10:33 UTC.
Position N 50°11' W 000°40'.

Length 173 m; beam 29 m.

Type: Ship. MMSI: 227023100.

Date/timePositionNaut miles runAvg speedWind from/ knotsBaromVisibWave heightAir tempDewpointWater temp
2016-Jul-28 09:33N 50°11' W 000°40'1919.2
2016-Jul-28 08:33N 49°52' W 000°33'2019.5
2016-Jul-28 07:33N 49°34' W 000°22'1717.1
2016-Jul-28 06:34N 49°17' W 000°15'0 0.0
2016-Jul-28 05:33N 49°17' W 000°15'0 0.0
2016-Jul-28 04:33N 49°17' W 000°15'1313.3
2016-Jul-28 03:33N 49°30' W 000°18'1211.6
2016-Jul-28 02:33N 49°41' W 000°24'1212.0
2016-Jul-28 01:33N 49°53' W 000°31'1414.5
2016-Jul-28 00:34N 50°06' W 000°39'1716.8
2016-Jul-27 23:33N 50°22' W 000°49'1616.4
2016-Jul-27 22:34N 50°37' W 000°58'1312.6
2016-Jul-27 21:33N 50°48' W 001°07'1 0.8
2016-Jul-27 20:33N 50°49' W 001°06'0 0.0
2016-Jul-27 19:33N 50°49' W 001°06'0 0.2
2016-Jul-27 18:34N 50°49' W 001°06'1515.3
2016-Jul-27 17:33N 50°35' W 000°56'2121.0
2016-Jul-27 16:33N 50°15' W 000°44'2120.6
2016-Jul-27 15:33N 49°56' W 000°32'2020.5
2016-Jul-27 14:33N 49°37' W 000°21'1919.5
2016-Jul-27 13:33N 49°18' W 000°15'1 0.6
2016-Jul-27 12:33N 49°17' W 000°15'0 0.0
2016-Jul-27 11:34N 49°17' W 000°15'0 0.0
2016-Jul-27 10:34N 49°17' W 000°15'0 0.0
2016-Jul-27 09:34N 49°17' W 000°15'0 0.0
2016-Jul-27 08:33N 49°17' W 000°15'0 0.0
2016-Jul-27 07:33N 49°17' W 000°15'0 0.0
2016-Jul-27 06:33N 49°17' W 000°15'0 0.0
2016-Jul-27 05:33N 49°17' W 000°15'1010.1
2016-Jul-27 04:33N 49°27' W 000°18'1313.0
2016-Jul-27 03:34N 49°40' W 000°24'1212.3
2016-Jul-27 02:33N 49°51' W 000°31'1313.2
2016-Jul-27 01:33N 50°04' W 000°36'1816.7
2016-Jul-27 00:29N 50°21' W 000°46'1516.7
2016-Jul-26 23:33N 50°35' W 000°56'1413.8
2016-Jul-26 22:33N 50°47' W 001°06'2 1.7
2016-Jul-26 21:34N 50°49' W 001°06'0 0.0
2016-Jul-26 20:33N 50°49' W 001°06'6 5.9
2016-Jul-26 19:34N 50°43' W 001°02'1716.6
2016-Jul-26 18:33N 50°27' W 000°56'1919.2
2016-Jul-26 17:33N 50°10' W 000°41'1919.0
2016-Jul-26 16:33N 49°53' W 000°31'1919.0
2016-Jul-26 15:34N 49°35' W 000°22'1817.7
2016-Jul-26 14:34N 49°17' W 000°15'0 0.2
2016-Jul-26 13:33N 49°17' W 000°15'1 1.4
2016-Jul-26 12:34N 49°19' W 000°15'2020.4
2016-Jul-26 11:34N 49°38' W 000°23'2120.9
2016-Jul-26 10:34N 49°57' W 000°36'2120.5
2016-Jul-26 09:31N 50°17' W 000°48'1920.0
2016-Jul-26 08:34N 50°36' W 000°57'1414.3
2016-Jul-26 07:33N 50°49' W 001°07'0 0.5
2016-Jul-26 06:33N 50°49' W 001°06'0 0.1
2016-Jul-26 05:34N 50°49' W 001°06'1413.6
2016-Jul-26 04:33N 50°36' W 000°57'1514.6
2016-Jul-26 03:33N 50°23' W 000°47'1111.5
2016-Jul-26 02:33N 50°12' W 000°42'1110.9
2016-Jul-26 01:33N 50°02' W 000°36'1110.6
2016-Jul-26 00:33N 49°52' W 000°31'1110.7
2016-Jul-25 23:33N 49°42' W 000°25'1110.8
2016-Jul-25 22:33N 49°31' W 000°20'1111.2
2016-Jul-25 21:33N 49°21' W 000°15'4 3.5
2016-Jul-25 20:33N 49°17' W 000°15'0 0.0
2016-Jul-25 19:33N 49°17' W 000°15'1111.0
2016-Jul-25 18:33N 49°28' W 000°18'2019.9
2016-Jul-25 17:33N 49°47' W 000°30'1919.0
2016-Jul-25 16:33N 50°05' W 000°39'1919.4
2016-Jul-25 15:33N 50°23' W 000°49'1919.3
2016-Jul-25 14:33N 50°41' W 000°60'9 8.7
2016-Jul-25 13:33N 50°49' W 001°06'0 0.0
2016-Jul-25 12:33N 50°49' W 001°06'3 3.2
2016-Jul-25 11:33N 50°45' W 001°05'1817.8
2016-Jul-25 10:33N 50°29' W 000°55'2020.1
2016-Jul-25 09:33N 50°10' W 000°45'2020.1
2016-Jul-25 08:33N 49°51' W 000°34'2019.9
2016-Jul-25 07:33N 49°33' W 000°23'1616.0
2016-Jul-25 06:33N 49°17' W 000°15'0 0.0
2016-Jul-25 05:33N 49°17' W 000°15'0 0.1
2016-Jul-25 04:33N 49°17' W 000°15'1514.8
2016-Jul-25 03:33N 49°31' W 000°22'1616.1
2016-Jul-25 02:33N 49°46' W 000°31'1414.4
2016-Jul-25 01:33N 50°01' W 000°30'1716.7
2016-Jul-25 00:33N 50°15' W 000°42'1616.2
2016-Jul-24 23:33N 50°30' W 000°52'1515.2
2016-Jul-24 22:33N 50°44' W 001°03'5 5.2
2016-Jul-24 21:34N 50°49' W 001°06'0 0.0
2016-Jul-24 20:33N 50°49' W 001°06'6 5.7
2016-Jul-24 19:34N 50°44' W 001°02'1818.3
2016-Jul-24 18:33N 50°27' W 000°50'2019.9
2016-Jul-24 17:33N 50°08' W 000°41'2020.3
2016-Jul-24 16:34N 49°49' W 000°30'2120.5
2016-Jul-24 15:33N 49°29' W 000°19'1212.4
2016-Jul-24 14:33N 49°17' W 000°15'0 0.0
2016-Jul-24 13:33N 49°17' W 000°15'0 0.1
2016-Jul-24 12:34N 49°17' W 000°15'1919.1
2016-Jul-24 11:33N 49°36' W 000°22'2221.6
2016-Jul-24 10:34N 49°55' W 000°36'3121.9
2016-Jul-24 09:07N 50°25' W 000°54'1220.9
2016-Jul-24 08:34N 50°36' W 000°58'1313.5
2016-Jul-24 07:33N 50°48' W 001°07'1 0.8
2016-Jul-24 06:33N 50°49' W 001°06'0 0.4
2016-Jul-24 05:34N 50°49' W 001°06'1413.6
2016-Jul-24 04:33N 50°36' W 000°57'1313.3
2016-Jul-24 03:33N 50°24' W 000°49'1211.9
2016-Jul-24 02:34N 50°13' W 000°42'1211.8
2016-Jul-24 01:34N 50°02' W 000°36'1111.1
2016-Jul-24 00:33N 49°51' W 000°31'1111.0
2016-Jul-23 23:33N 49°41' W 000°25'1111.1
2016-Jul-23 22:33N 49°31' W 000°19'1010.4
2016-Jul-23 21:33N 49°21' W 000°14'3 3.3
2016-Jul-23 20:33N 49°17' W 000°15'0 0.2
2016-Jul-23 19:33N 49°17' W 000°15'1717.0
2016-Jul-23 18:34N 49°34' W 000°20'1919.1
2016-Jul-23 17:34N 49°52' W 000°31'1918.8
2016-Jul-23 16:33N 50°09' W 000°41'1919.3
2016-Jul-23 15:33N 50°28' W 000°52'1818.2
2016-Jul-23 14:33N 50°44' W 001°04'5 4.8
2016-Jul-23 13:33N 50°49' W 001°06'0 0.0
2016-Jul-23 12:34N 50°49' W 001°06'9 9.1
2016-Jul-23 11:33N 50°41' W 000°58'1918.8
2016-Jul-23 10:33N 50°23' W 000°50'1919.0
2016-Jul-23 09:33N 50°05' W 000°42'1818.4
2016-Jul-23 08:33N 49°48' W 000°32'1918.9
2016-Jul-23 07:33N 49°30' W 000°21'1313.4
2016-Jul-23 06:34N 49°17' W 000°15'0 0.1
2016-Jul-23 04:33N 49°17' W 000°15'1615.6
2016-Jul-23 03:34N 49°33' W 000°19'1717.0
2016-Jul-23 02:34N 49°48' W 000°29'1413.7
2016-Jul-23 01:33N 50°01' W 000°36'1616.4
2016-Jul-23 00:33N 50°17' W 000°45'1716.7
2016-Jul-22 23:34N 50°32' W 000°55'1515.0
2016-Jul-22 22:34N 50°46' W 001°05'3 3.2
2016-Jul-22 21:34N 50°49' W 001°06'0 0.0
2016-Jul-22 20:33N 50°49' W 001°06'2 1.8
2016-Jul-22 19:34N 50°47' W 001°06'1616.3
2016-Jul-22 18:34N 50°32' W 000°55'1919.3
2016-Jul-22 17:33N 50°14' W 000°45'2019.8
2016-Jul-22 16:34N 49°55' W 000°35'2020.3
2016-Jul-22 15:33N 49°36' W 000°24'1919.2
2016-Jul-22 14:33N 49°18' W 000°15'1 0.6
2016-Jul-22 13:33N 49°17' W 000°15'0 0.1
2016-Jul-22 12:34N 49°17' W 000°15'1919.2
2016-Jul-22 11:34N 49°35' W 000°24'2221.5
2016-Jul-22 10:34N 49°56' W 000°36'2221.8
2016-Jul-22 09:33N 50°16' W 000°47'2121.5
2016-Jul-22 08:34N 50°37' W 000°57'1313.1
2016-Jul-22 07:34N 50°49' W 001°06'0 0.0
2016-Jul-22 05:34N 50°49' W 001°06'1212.4
2016-Jul-22 04:33N 50°37' W 000°58'1211.4
2016-Jul-22 03:32N 50°26' W 000°52'1111.0
2016-Jul-22 02:33N 50°16' W 000°46'1111.3
2016-Jul-22 01:33N 50°06' W 000°39'1111.4
2016-Jul-22 00:33N 49°55' W 000°32'1111.3
2016-Jul-21 23:33N 49°45' W 000°26'1111.3
2016-Jul-21 22:33N 49°34' W 000°20'1111.2
2016-Jul-21 21:33N 49°23' W 000°16'6 5.9
2016-Jul-21 20:33N 49°17' W 000°15'0 0.0
2016-Jul-21 19:33N 49°17' W 000°15'1111.2
2016-Jul-21 18:33N 49°28' W 000°17'2120.5
2016-Jul-21 17:33N 49°48' W 000°28'2019.9
2016-Jul-21 16:34N 50°06' W 000°39'2020.2
2016-Jul-21 15:33N 50°25' W 000°51'2020.1
2016-Jul-21 14:33N 50°44' W 001°03'5 5.4
2016-Jul-21 13:33N 50°49' W 001°06'0 0.0
2016-Jul-21 12:33N 50°49' W 001°06'3 3.3
2016-Jul-21 11:34N 50°45' W 001°05'2019.5
2016-Jul-21 10:33N 50°27' W 000°54'2020.7
2016-Jul-21 09:33N 50°08' W 000°43'2020.1
2016-Jul-21 08:34N 49°49' W 000°31'2020.0
2016-Jul-21 07:34N 49°30' W 000°21'1413.6
2016-Jul-21 06:33N 49°17' W 000°15'0 0.0
2016-Jul-21 05:33N 49°17' W 000°15'0 0.1
2016-Jul-21 04:33N 49°17' W 000°15'1514.9
2016-Jul-21 03:34N 49°32' W 000°19'1111.5
2016-Jul-21 02:34N 49°43' W 000°26'1110.5
2016-Jul-21 01:34N 49°53' W 000°31'1313.2
2016-Jul-21 00:33N 50°05' W 000°38'1616.3
2016-Jul-20 23:33N 50°20' W 000°46'1716.9
2016-Jul-20 22:33N 50°36' W 000°56'1313.4
2016-Jul-20 21:34N 50°48' W 001°07'1 1.3
2016-Jul-20 20:33N 50°49' W 001°06'0 0.0
2016-Jul-20 19:34N 50°49' W 001°06'0 0.0
2016-Jul-20 18:33N 50°49' W 001°06'4 3.7
2016-Jul-20 17:33N 50°45' W 001°05'1817.7
2016-Jul-20 16:33N 50°29' W 000°54'1716.8
2016-Jul-20 15:33N 50°13' W 000°46'1717.4
2016-Jul-20 14:33N 49°57' W 000°36'1817.6
2016-Jul-20 13:33N 49°40' W 000°27'1717.2
2016-Jul-20 12:33N 49°24' W 000°16'7 7.0
2016-Jul-20 11:34N 49°17' W 000°15'0 0.0
2016-Jul-20 10:33N 49°17' W 000°15'0 0.0
2016-Jul-20 09:33N 49°17' W 000°15'0 0.0
2016-Jul-20 08:33N 49°17' W 000°15'0 0.0
2016-Jul-20 07:33N 49°17' W 000°15'0 0.0
2016-Jul-20 06:33N 49°17' W 000°15'0 0.0
2016-Jul-20 05:33N 49°17' W 000°15'1110.7
2016-Jul-20 04:33N 49°28' W 000°17'1515.1
2016-Jul-20 03:33N 49°42' W 000°26'1413.9
2016-Jul-20 02:33N 49°55' W 000°34'10 9.6
2016-Jul-20 01:33N 50°04' W 000°39'1514.9
2016-Jul-20 00:33N 50°18' W 000°47'1515.4
2016-Jul-19 23:33N 50°32' W 000°55'1514.5
2016-Jul-19 22:34N 50°45' W 001°05'3 3.2
2016-Jul-19 21:34N 50°49' W 001°06'0 0.0
2016-Jul-19 20:34N 50°49' W 001°06'1111.0
2016-Jul-19 19:33N 50°39' W 000°58'2121.0
2016-Jul-19 18:33N 50°19' W 000°49'2121.0
2016-Jul-19 17:33N 49°59' W 000°40'2121.1
2016-Jul-19 16:33N 49°39' W 000°27'2121.0
2016-Jul-19 15:33N 49°20' W 000°14'2 2.5
2016-Jul-19 14:33N 49°17' W 000°15'0 0.0
2016-Jul-19 13:33N 49°17' W 000°15'5 5.3
2016-Jul-19 12:34N 49°23' W 000°14'2020.2
2016-Jul-19 11:34N 49°42' W 000°23'2120.5
2016-Jul-19 10:34N 50°02' W 000°28'2120.8
2016-Jul-19 09:33N 50°21' W 000°43'2020.3
2016-Jul-19 08:34N 50°39' W 000°57'1111.3
2016-Jul-19 07:33N 50°49' W 001°06'12 3.9
2016-Jul-19 04:33N 50°38' W 000°58'1212.1
2016-Jul-19 03:33N 50°27' W 000°52'1212.2
2016-Jul-19 02:33N 50°15' W 000°46'1312.5
2016-Jul-19 01:33N 50°03' W 000°40'1312.8
2016-Jul-19 00:33N 49°51' W 000°33'1212.4
2016-Jul-18 23:33N 49°39' W 000°27'1110.7
2016-Jul-18 22:33N 49°29' W 000°19'1211.8
2016-Jul-18 21:33N 49°18' W 000°15'1 0.8
2016-Jul-18 20:33N 49°17' W 000°15'0 0.0
2016-Jul-18 19:33N 49°17' W 000°15'1010.0
2016-Jul-18 18:33N 49°27' W 000°14'2121.2
2016-Jul-18 17:33N 49°47' W 000°28'2121.0
2016-Jul-18 16:33N 50°06' W 000°40'2120.8
2016-Jul-18 15:33N 50°26' W 000°51'1918.8
2016-Jul-18 14:33N 50°43' W 001°01'6 6.1
2016-Jul-18 13:34N 50°49' W 001°06'0 0.1
2016-Jul-18 12:34N 50°49' W 001°06'7 6.8
2016-Jul-18 11:33N 50°43' W 000°60'1313.1
2016-Jul-18 10:33N 50°32' W 000°50'  
Track history (hours):
 
Tides and Currents Weather Stations Pressure Air Temp Water Temp Dewpoint Dewpoint Depression Visibility Wind Speed Wind Dir Waves Ship Positions

Mont Saint Michel

Last reported at 2016-Jul-28 09:33 UTC. Time now 2016-Jul-28 10:33 UTC.
Position N 50°11' W 000°40'.

Length 173 m; beam 29 m.

Type: Ship. MMSI: 227023100.

Date/timePositionNaut miles runAvg speedWind from/ knotsBaromVisibWave heightAir tempDewpointWater temp
2016-Jul-28 09:33N 50°11' W 000°40'1919.2
2016-Jul-28 08:33N 49°52' W 000°33'2019.5
2016-Jul-28 07:33N 49°34' W 000°22'1717.1
2016-Jul-28 06:34N 49°17' W 000°15'0 0.0
2016-Jul-28 05:33N 49°17' W 000°15'0 0.0
2016-Jul-28 04:33N 49°17' W 000°15'1313.3
2016-Jul-28 03:33N 49°30' W 000°18'1211.6
2016-Jul-28 02:33N 49°41' W 000°24'1212.0
2016-Jul-28 01:33N 49°53' W 000°31'1414.5
2016-Jul-28 00:34N 50°06' W 000°39'1716.8
2016-Jul-27 23:33N 50°22' W 000°49'1616.4
2016-Jul-27 22:34N 50°37' W 000°58'1312.6
2016-Jul-27 21:33N 50°48' W 001°07'1 0.8
2016-Jul-27 20:33N 50°49' W 001°06'0 0.0
2016-Jul-27 19:33N 50°49' W 001°06'0 0.2
2016-Jul-27 18:34N 50°49' W 001°06'1515.3
2016-Jul-27 17:33N 50°35' W 000°56'2121.0
2016-Jul-27 16:33N 50°15' W 000°44'2120.6
2016-Jul-27 15:33N 49°56' W 000°32'2020.5
2016-Jul-27 14:33N 49°37' W 000°21'1919.5
2016-Jul-27 13:33N 49°18' W 000°15'1 0.6
2016-Jul-27 12:33N 49°17' W 000°15'0 0.0
2016-Jul-27 11:34N 49°17' W 000°15'0 0.0
2016-Jul-27 10:34N 49°17' W 000°15'0 0.0
2016-Jul-27 09:34N 49°17' W 000°15'0 0.0
2016-Jul-27 08:33N 49°17' W 000°15'0 0.0
2016-Jul-27 07:33N 49°17' W 000°15'0 0.0
2016-Jul-27 06:33N 49°17' W 000°15'0 0.0
2016-Jul-27 05:33N 49°17' W 000°15'1010.1
2016-Jul-27 04:33N 49°27' W 000°18'1313.0
2016-Jul-27 03:34N 49°40' W 000°24'1212.3
2016-Jul-27 02:33N 49°51' W 000°31'1313.2
2016-Jul-27 01:33N 50°04' W 000°36'1816.7
2016-Jul-27 00:29N 50°21' W 000°46'1516.7
2016-Jul-26 23:33N 50°35' W 000°56'1413.8
2016-Jul-26 22:33N 50°47' W 001°06'2 1.7
2016-Jul-26 21:34N 50°49' W 001°06'0 0.0
2016-Jul-26 20:33N 50°49' W 001°06'6 5.9
2016-Jul-26 19:34N 50°43' W 001°02'1716.6
2016-Jul-26 18:33N 50°27' W 000°56'1919.2
2016-Jul-26 17:33N 50°10' W 000°41'1919.0
2016-Jul-26 16:33N 49°53' W 000°31'1919.0
2016-Jul-26 15:34N 49°35' W 000°22'1817.7
2016-Jul-26 14:34N 49°17' W 000°15'0 0.2
2016-Jul-26 13:33N 49°17' W 000°15'1 1.4
2016-Jul-26 12:34N 49°19' W 000°15'2020.4
2016-Jul-26 11:34N 49°38' W 000°23'2120.9
2016-Jul-26 10:34N 49°57' W 000°36'2120.5
2016-Jul-26 09:31N 50°17' W 000°48'1920.0
2016-Jul-26 08:34N 50°36' W 000°57'1414.3
2016-Jul-26 07:33N 50°49' W 001°07'0 0.5
2016-Jul-26 06:33N 50°49' W 001°06'0 0.1
2016-Jul-26 05:34N 50°49' W 001°06'1413.6
2016-Jul-26 04:33N 50°36' W 000°57'1514.6
2016-Jul-26 03:33N 50°23' W 000°47'1111.5
2016-Jul-26 02:33N 50°12' W 000°42'1110.9
2016-Jul-26 01:33N 50°02' W 000°36'1110.6
2016-Jul-26 00:33N 49°52' W 000°31'1110.7
2016-Jul-25 23:33N 49°42' W 000°25'1110.8
2016-Jul-25 22:33N 49°31' W 000°20'1111.2
2016-Jul-25 21:33N 49°21' W 000°15'4 3.5
2016-Jul-25 20:33N 49°17' W 000°15'0 0.0
2016-Jul-25 19:33N 49°17' W 000°15'1111.0
2016-Jul-25 18:33N 49°28' W 000°18'2019.9
2016-Jul-25 17:33N 49°47' W 000°30'1919.0
2016-Jul-25 16:33N 50°05' W 000°39'1919.4
2016-Jul-25 15:33N 50°23' W 000°49'1919.3
2016-Jul-25 14:33N 50°41' W 000°60'9 8.7
2016-Jul-25 13:33N 50°49' W 001°06'0 0.0
2016-Jul-25 12:33N 50°49' W 001°06'3 3.2
2016-Jul-25 11:33N 50°45' W 001°05'1817.8
2016-Jul-25 10:33N 50°29' W 000°55'2020.1
2016-Jul-25 09:33N 50°10' W 000°45'2020.1
2016-Jul-25 08:33N 49°51' W 000°34'2019.9
2016-Jul-25 07:33N 49°33' W 000°23'1616.0
2016-Jul-25 06:33N 49°17' W 000°15'0 0.0
2016-Jul-25 05:33N 49°17' W 000°15'0 0.1
2016-Jul-25 04:33N 49°17' W 000°15'1514.8
2016-Jul-25 03:33N 49°31' W 000°22'1616.1
2016-Jul-25 02:33N 49°46' W 000°31'1414.4
2016-Jul-25 01:33N 50°01' W 000°30'1716.7
2016-Jul-25 00:33N 50°15' W 000°42'1616.2
2016-Jul-24 23:33N 50°30' W 000°52'1515.2
2016-Jul-24 22:33N 50°44' W 001°03'5 5.2
2016-Jul-24 21:34N 50°49' W 001°06'0 0.0
2016-Jul-24 20:33N 50°49' W 001°06'6 5.7
2016-Jul-24 19:34N 50°44' W 001°02'1818.3
2016-Jul-24 18:33N 50°27' W 000°50'2019.9
2016-Jul-24 17:33N 50°08' W 000°41'2020.3
2016-Jul-24 16:34N 49°49' W 000°30'2120.5
2016-Jul-24 15:33N 49°29' W 000°19'1212.4
2016-Jul-24 14:33N 49°17' W 000°15'0 0.0
2016-Jul-24 13:33N 49°17' W 000°15'0 0.1
2016-Jul-24 12:34N 49°17' W 000°15'1919.1
2016-Jul-24 11:33N 49°36' W 000°22'2221.6
2016-Jul-24 10:34N 49°55' W 000°36'3121.9
2016-Jul-24 09:07N 50°25' W 000°54'1220.9
2016-Jul-24 08:34N 50°36' W 000°58'1313.5
2016-Jul-24 07:33N 50°48' W 001°07'1 0.8
2016-Jul-24 06:33N 50°49' W 001°06'0 0.4
2016-Jul-24 05:34N 50°49' W 001°06'1413.6
2016-Jul-24 04:33N 50°36' W 000°57'1313.3
2016-Jul-24 03:33N 50°24' W 000°49'1211.9
2016-Jul-24 02:34N 50°13' W 000°42'1211.8
2016-Jul-24 01:34N 50°02' W 000°36'1111.1
2016-Jul-24 00:33N 49°51' W 000°31'1111.0
2016-Jul-23 23:33N 49°41' W 000°25'1111.1
2016-Jul-23 22:33N 49°31' W 000°19'1010.4
2016-Jul-23 21:33N 49°21' W 000°14'3 3.3
2016-Jul-23 20:33N 49°17' W 000°15'0 0.2
2016-Jul-23 19:33N 49°17' W 000°15'1717.0
2016-Jul-23 18:34N 49°34' W 000°20'1919.1
2016-Jul-23 17:34N 49°52' W 000°31'1918.8
2016-Jul-23 16:33N 50°09' W 000°41'1919.3
2016-Jul-23 15:33N 50°28' W 000°52'1818.2
2016-Jul-23 14:33N 50°44' W 001°04'5 4.8
2016-Jul-23 13:33N 50°49' W 001°06'0 0.0
2016-Jul-23 12:34N 50°49' W 001°06'9 9.1
2016-Jul-23 11:33N 50°41' W 000°58'1918.8
2016-Jul-23 10:33N 50°23' W 000°50'1919.0
2016-Jul-23 09:33N 50°05' W 000°42'1818.4
2016-Jul-23 08:33N 49°48' W 000°32'1918.9
2016-Jul-23 07:33N 49°30' W 000°21'1313.4
2016-Jul-23 06:34N 49°17' W 000°15'0 0.1
2016-Jul-23 04:33N 49°17' W 000°15'1615.6
2016-Jul-23 03:34N 49°33' W 000°19'1717.0
2016-Jul-23 02:34N 49°48' W 000°29'1413.7
2016-Jul-23 01:33N 50°01' W 000°36'1616.4
2016-Jul-23 00:33N 50°17' W 000°45'1716.7
2016-Jul-22 23:34N 50°32' W 000°55'1515.0
2016-Jul-22 22:34N 50°46' W 001°05'3 3.2
2016-Jul-22 21:34N 50°49' W 001°06'0 0.0
2016-Jul-22 20:33N 50°49' W 001°06'2 1.8
2016-Jul-22 19:34N 50°47' W 001°06'1616.3
2016-Jul-22 18:34N 50°32' W 000°55'1919.3
2016-Jul-22 17:33N 50°14' W 000°45'2019.8
2016-Jul-22 16:34N 49°55' W 000°35'2020.3
2016-Jul-22 15:33N 49°36' W 000°24'1919.2
2016-Jul-22 14:33N 49°18' W 000°15'1 0.6
2016-Jul-22 13:33N 49°17' W 000°15'0 0.1
2016-Jul-22 12:34N 49°17' W 000°15'1919.2
2016-Jul-22 11:34N 49°35' W 000°24'2221.5
2016-Jul-22 10:34N 49°56' W 000°36'2221.8
2016-Jul-22 09:33N 50°16' W 000°47'2121.5
2016-Jul-22 08:34N 50°37' W 000°57'1313.1
2016-Jul-22 07:34N 50°49' W 001°06'0 0.0
2016-Jul-22 05:34N 50°49' W 001°06'1212.4
2016-Jul-22 04:33N 50°37' W 000°58'1211.4
2016-Jul-22 03:32N 50°26' W 000°52'1111.0
2016-Jul-22 02:33N 50°16' W 000°46'1111.3
2016-Jul-22 01:33N 50°06' W 000°39'1111.4
2016-Jul-22 00:33N 49°55' W 000°32'1111.3
2016-Jul-21 23:33N 49°45' W 000°26'1111.3
2016-Jul-21 22:33N 49°34' W 000°20'1111.2
2016-Jul-21 21:33N 49°23' W 000°16'6 5.9
2016-Jul-21 20:33N 49°17' W 000°15'0 0.0
2016-Jul-21 19:33N 49°17' W 000°15'1111.2
2016-Jul-21 18:33N 49°28' W 000°17'2120.5
2016-Jul-21 17:33N 49°48' W 000°28'2019.9
2016-Jul-21 16:34N 50°06' W 000°39'2020.2
2016-Jul-21 15:33N 50°25' W 000°51'2020.1
2016-Jul-21 14:33N 50°44' W 001°03'5 5.4
2016-Jul-21 13:33N 50°49' W 001°06'0 0.0
2016-Jul-21 12:33N 50°49' W 001°06'3 3.3
2016-Jul-21 11:34N 50°45' W 001°05'2019.5
2016-Jul-21 10:33N 50°27' W 000°54'2020.7
2016-Jul-21 09:33N 50°08' W 000°43'2020.1
2016-Jul-21 08:34N 49°49' W 000°31'2020.0
2016-Jul-21 07:34N 49°30' W 000°21'1413.6
2016-Jul-21 06:33N 49°17' W 000°15'0 0.0
2016-Jul-21 05:33N 49°17' W 000°15'0 0.1
2016-Jul-21 04:33N 49°17' W 000°15'1514.9
2016-Jul-21 03:34N 49°32' W 000°19'1111.5
2016-Jul-21 02:34N 49°43' W 000°26'1110.5
2016-Jul-21 01:34N 49°53' W 000°31'1313.2
2016-Jul-21 00:33N 50°05' W 000°38'1616.3
2016-Jul-20 23:33N 50°20' W 000°46'1716.9
2016-Jul-20 22:33N 50°36' W 000°56'1313.4
2016-Jul-20 21:34N 50°48' W 001°07'1 1.3
2016-Jul-20 20:33N 50°49' W 001°06'0 0.0
2016-Jul-20 19:34N 50°49' W 001°06'0 0.0
2016-Jul-20 18:33N 50°49' W 001°06'4 3.7
2016-Jul-20 17:33N 50°45' W 001°05'1817.7
2016-Jul-20 16:33N 50°29' W 000°54'1716.8
2016-Jul-20 15:33N 50°13' W 000°46'1717.4
2016-Jul-20 14:33N 49°57' W 000°36'1817.6
2016-Jul-20 13:33N 49°40' W 000°27'1717.2
2016-Jul-20 12:33N 49°24' W 000°16'7 7.0
2016-Jul-20 11:34N 49°17' W 000°15'0 0.0
2016-Jul-20 10:33N 49°17' W 000°15'0 0.0
2016-Jul-20 09:33N 49°17' W 000°15'0 0.0
2016-Jul-20 08:33N 49°17' W 000°15'0 0.0
2016-Jul-20 07:33N 49°17' W 000°15'0 0.0
2016-Jul-20 06:33N 49°17' W 000°15'0 0.0
2016-Jul-20 05:33N 49°17' W 000°15'1110.7
2016-Jul-20 04:33N 49°28' W 000°17'1515.1
2016-Jul-20 03:33N 49°42' W 000°26'1413.9
2016-Jul-20 02:33N 49°55' W 000°34'10 9.6
2016-Jul-20 01:33N 50°04' W 000°39'1514.9
2016-Jul-20 00:33N 50°18' W 000°47'1515.4
2016-Jul-19 23:33N 50°32' W 000°55'1514.5
2016-Jul-19 22:34N 50°45' W 001°05'3 3.2
2016-Jul-19 21:34N 50°49' W 001°06'0 0.0
2016-Jul-19 20:34N 50°49' W 001°06'1111.0
2016-Jul-19 19:33N 50°39' W 000°58'2121.0
2016-Jul-19 18:33N 50°19' W 000°49'2121.0
2016-Jul-19 17:33N 49°59' W 000°40'2121.1
2016-Jul-19 16:33N 49°39' W 000°27'2121.0
2016-Jul-19 15:33N 49°20' W 000°14'2 2.5
2016-Jul-19 14:33N 49°17' W 000°15'0 0.0
2016-Jul-19 13:33N 49°17' W 000°15'5 5.3
2016-Jul-19 12:34N 49°23' W 000°14'2020.2
2016-Jul-19 11:34N 49°42' W 000°23'2120.5
2016-Jul-19 10:34N 50°02' W 000°28'2120.8
2016-Jul-19 09:33N 50°21' W 000°43'2020.3
2016-Jul-19 08:34N 50°39' W 000°57'1111.3
2016-Jul-19 07:33N 50°49' W 001°06'12 3.9
2016-Jul-19 04:33N 50°38' W 000°58'1212.1
2016-Jul-19 03:33N 50°27' W 000°52'1212.2
2016-Jul-19 02:33N 50°15' W 000°46'1312.5
2016-Jul-19 01:33N 50°03' W 000°40'1312.8
2016-Jul-19 00:33N 49°51' W 000°33'1212.4
2016-Jul-18 23:33N 49°39' W 000°27'1110.7
2016-Jul-18 22:33N 49°29' W 000°19'1211.8
2016-Jul-18 21:33N 49°18' W 000°15'1 0.8
2016-Jul-18 20:33N 49°17' W 000°15'0 0.0
2016-Jul-18 19:33N 49°17' W 000°15'1010.0
2016-Jul-18 18:33N 49°27' W 000°14'2121.2
2016-Jul-18 17:33N 49°47' W 000°28'2121.0
2016-Jul-18 16:33N 50°06' W 000°40'2120.8
2016-Jul-18 15:33N 50°26' W 000°51'1918.8
2016-Jul-18 14:33N 50°43' W 001°01'6 6.1
2016-Jul-18 13:34N 50°49' W 001°06'0 0.1
2016-Jul-18 12:34N 50°49' W 001°06'7 6.8
2016-Jul-18 11:33N 50°43' W 000°60'1313.1
2016-Jul-18 10:33N 50°32' W 000°50'  

Dump ship's entire track history